createdAt,value
2019-04-20T00:01:01.615Z,6.25
2019-04-20T00:03:39.417Z,6.19
2019-04-20T00:06:03.536Z,6.18
2019-04-20T00:08:37.533Z,6.15
2019-04-20T00:11:11.683Z,6.07
2019-04-20T00:13:48.925Z,6.07
2019-04-20T00:16:08.308Z,5.97
2019-04-20T00:18:43.049Z,6.04
2019-04-20T00:21:17.931Z,5.91
2019-04-20T00:23:50.254Z,6.03
2019-04-20T00:27:01.939Z,6.04
2019-04-20T00:29:21.313Z,6.06
2019-04-20T00:31:45.506Z,5.90
2019-04-20T00:34:13.853Z,5.80
2019-04-20T00:36:37.031Z,5.87
2019-04-20T00:39:11.125Z,5.81
2019-04-20T00:41:46.449Z,5.81
2019-04-20T00:44:17.148Z,5.58
2019-04-20T00:46:56.816Z,5.41
2019-04-20T00:49:30.588Z,5.43
2019-04-20T00:52:13.504Z,5.49
2019-04-20T00:54:18.051Z,5.39
2019-04-20T00:56:47.938Z,5.32
2019-04-20T00:59:32.077Z,5.31
2019-04-20T01:02:10.621Z,5.41
2019-04-20T01:04:44.968Z,5.40
2019-04-20T01:07:06.205Z,5.36
2019-04-20T01:09:33.038Z,5.33
2019-04-20T01:12:11.717Z,5.36
2019-04-20T01:14:43.464Z,5.41
2019-04-20T01:17:11.685Z,5.52
2019-04-20T01:19:37.356Z,5.67
2019-04-20T01:22:15.389Z,5.67
2019-04-20T01:24:41.957Z,5.64
2019-04-20T01:27:24.836Z,5.61
2019-04-20T01:29:46.802Z,5.61
2019-04-20T01:32:23.374Z,5.69
2019-04-20T01:34:56.780Z,5.85
2019-04-20T01:37:29.318Z,5.84
2019-04-20T01:39:52.105Z,5.93
2019-04-20T01:42:19.460Z,5.96
2019-04-20T01:44:52.417Z,5.97
2019-04-20T01:47:23.893Z,5.98
2019-04-20T01:50:04.758Z,6.14
2019-04-20T01:52:43.803Z,6.22
2019-04-20T01:55:24.788Z,6.16
2019-04-20T01:57:58.331Z,6.08
2019-04-20T02:00:23.327Z,6.06
2019-04-20T02:02:57.055Z,6.10
2019-04-20T02:05:29.080Z,6.08
2019-04-20T02:07:55.471Z,6.11
2019-04-20T02:10:33.335Z,6.06
2019-04-20T02:13:01.050Z,6.14
2019-04-20T02:15:37.532Z,6.08
2019-04-20T02:18:13.911Z,6.02
2019-04-20T02:20:48.594Z,6.06
2019-04-20T02:23:16.431Z,6.07
2019-04-20T02:25:35.386Z,6.15
2019-04-20T02:28:22.956Z,6.07
2019-04-20T02:31:14.835Z,5.92
2019-04-20T02:33:52.563Z,5.85
2019-04-20T02:36:27.591Z,5.83
2019-04-20T02:39:24.673Z,6.01
2019-04-20T02:41:36.042Z,5.84
2019-04-20T02:44:14.703Z,5.90
2019-04-20T02:46:40.894Z,5.79
2019-04-20T02:49:34.105Z,5.70
2019-04-20T02:51:41.175Z,5.65
2019-04-20T02:54:16.559Z,5.74
2019-04-20T02:56:49.756Z,5.70
2019-04-20T02:59:42.291Z,5.59
2019-04-20T03:01:30.738Z,5.48
2019-04-20T03:03:52.194Z,5.32
2019-04-20T03:06:30.195Z,5.21
2019-04-20T03:09:09.111Z,5.07
2019-04-20T03:11:52.949Z,5.03
2019-04-20T03:14:09.225Z,4.95
2019-04-20T03:16:41.236Z,4.93
2019-04-20T03:19:11.741Z,4.95
2019-04-20T03:21:52.872Z,4.92
2019-04-20T03:24:26.733Z,4.77
2019-04-20T03:26:55.645Z,4.73
2019-04-20T03:29:51.082Z,4.62
2019-04-20T03:32:57.903Z,4.45
2019-04-20T03:37:28.146Z,4.24
2019-04-20T03:39:48.819Z,4.17
2019-04-20T03:42:06.996Z,4.09
2019-04-20T03:44:39.024Z,4.19
2019-04-20T03:47:11.499Z,4.20
2019-04-20T03:50:00.245Z,4.15
2019-04-20T03:52:32.781Z,4.24
2019-04-20T03:55:19.860Z,4.19
2019-04-20T03:58:14.042Z,4.03
2019-04-20T04:00:59.815Z,3.98
2019-04-20T04:03:41.049Z,4.05
2019-04-20T04:06:02.896Z,4.03
2019-04-20T04:08:28.884Z,4.08
2019-04-20T04:11:12.319Z,4.07
2019-04-20T04:13:24.950Z,3.99
2019-04-20T04:16:01.194Z,3.99
2019-04-20T04:18:34.912Z,4.02
2019-04-20T04:21:04.800Z,3.90
2019-04-20T04:23:44.778Z,3.88
2019-04-20T04:26:16.070Z,3.74
2019-04-20T04:28:50.254Z,3.76
2019-04-20T04:31:23.307Z,3.79
2019-04-20T04:36:20.800Z,3.84
2019-04-20T04:39:17.778Z,3.99
2019-04-20T04:41:41.694Z,4.06
2019-04-20T04:43:58.848Z,4.12
2019-04-20T04:46:14.489Z,4.19
2019-04-20T04:48:47.535Z,4.34
2019-04-20T04:51:23.943Z,4.53
2019-04-20T04:53:56.230Z,4.65
2019-04-20T04:56:23.139Z,4.69
2019-04-20T04:58:51.649Z,4.88
2019-04-20T05:01:26.038Z,5.10
2019-04-20T05:04:23.053Z,5.14
2019-04-20T05:06:37.462Z,5.12
2019-04-20T05:09:00.821Z,5.25
2019-04-20T05:11:29.785Z,5.34
2019-04-20T05:14:05.213Z,5.54
2019-04-20T05:16:54.548Z,5.77
2019-04-20T05:19:24.755Z,6.13
2019-04-20T05:22:01.281Z,6.35
2019-04-20T05:24:26.946Z,6.48
2019-04-20T05:27:08.982Z,6.77
2019-04-20T05:29:24.676Z,7.19
2019-04-20T05:31:55.850Z,7.23
2019-04-20T05:34:45.122Z,7.36
2019-04-20T05:37:23.643Z,7.38
2019-04-20T05:39:45.778Z,7.62
2019-04-20T05:42:19.160Z,7.80
2019-04-20T05:44:50.037Z,7.93
2019-04-20T05:47:16.951Z,8.00
2019-04-20T05:49:46.852Z,8.06
2019-04-20T05:52:38.667Z,8.20
2019-04-20T05:54:57.322Z,8.43
2019-04-20T05:57:30.307Z,8.61
2019-04-20T06:00:01.837Z,8.58
2019-04-20T06:02:30.575Z,8.74
2019-04-20T06:05:05.391Z,8.83
2019-04-20T06:07:29.657Z,8.93
2019-04-20T06:10:06.223Z,9.19
2019-04-20T06:12:35.798Z,9.29
2019-04-20T06:15:04.593Z,9.91
2019-04-20T06:17:52.722Z,11.74
2019-04-20T06:20:36.718Z,13.37
2019-04-20T06:23:12.227Z,14.95
2019-04-20T06:25:53.807Z,15.43
2019-04-20T06:28:12.719Z,15.41
2019-04-20T06:30:43.361Z,16.23
2019-04-20T06:34:07.553Z,16.11
2019-04-20T06:36:35.371Z,17.23
2019-04-20T06:39:13.778Z,16.45
2019-04-20T06:41:45.586Z,15.97
2019-04-20T06:44:08.805Z,16.27
2019-04-20T06:46:36.241Z,15.98
2019-04-20T06:49:10.688Z,16.71
2019-04-20T06:51:45.455Z,16.87
2019-04-20T06:54:09.502Z,16.74
2019-04-20T06:56:54.450Z,16.68
2019-04-20T06:59:27.560Z,16.60
2019-04-20T07:07:02.312Z,13.91
2019-04-20T07:09:39.904Z,13.07
2019-04-20T07:12:01.373Z,13.04
2019-04-20T07:14:25.903Z,13.05
2019-04-20T07:17:17.954Z,12.98
2019-04-20T07:19:39.864Z,13.02
2019-04-20T07:22:29.242Z,13.10
2019-04-20T07:24:55.106Z,12.74
2019-04-20T07:27:19.335Z,12.58
2019-04-20T07:29:57.463Z,12.90
2019-04-20T07:32:21.098Z,12.89
2019-04-20T07:34:57.313Z,13.03
2019-04-20T07:38:04.610Z,13.36
2019-04-20T07:40:07.764Z,13.21
2019-04-20T07:42:43.682Z,13.11
2019-04-20T07:45:18.138Z,13.08
2019-04-20T07:50:09.022Z,13.58
2019-04-20T07:52:39.633Z,13.87
2019-04-20T07:55:33.650Z,13.86
2019-04-20T07:57:45.743Z,13.87
2019-04-20T08:00:26.296Z,13.87
2019-04-20T08:03:18.580Z,14.00
2019-04-20T08:05:36.352Z,14.36
2019-04-20T08:08:18.132Z,14.55
2019-04-20T08:10:42.108Z,14.77
2019-04-20T08:13:25.731Z,14.70
2019-04-20T08:15:57.025Z,15.06
2019-04-20T08:18:27.701Z,15.44
2019-04-20T08:20:58.433Z,15.30
2019-04-20T08:23:31.703Z,15.50
2019-04-20T08:25:49.876Z,15.09
2019-04-20T08:28:20.854Z,15.53
2019-04-20T08:31:06.077Z,15.82
2019-04-20T08:33:55.249Z,15.64
2019-04-20T08:36:23.160Z,15.76
2019-04-20T08:39:18.517Z,15.81
2019-04-20T08:41:17.025Z,15.56
2019-04-20T08:44:21.664Z,15.64
2019-04-20T08:46:26.585Z,15.96
2019-04-20T08:48:58.173Z,15.57
2019-04-20T08:51:31.724Z,15.53
2019-04-20T08:53:56.990Z,15.39
2019-04-20T08:56:28.586Z,15.49
2019-04-20T08:58:43.531Z,16.03
2019-04-20T09:01:18.502Z,15.44
2019-04-20T09:03:56.538Z,15.62
2019-04-20T09:06:34.774Z,16.01
2019-04-20T09:09:03.404Z,16.34
2019-04-20T09:11:41.523Z,15.88
2019-04-20T09:13:55.771Z,16.37
2019-04-20T09:16:31.735Z,16.30
2019-04-20T09:18:59.828Z,16.41
2019-04-20T09:21:35.527Z,16.47
2019-04-20T09:24:24.366Z,16.12
2019-04-20T09:26:47.925Z,16.32
2019-04-20T09:29:11.815Z,16.86
2019-04-20T09:31:46.997Z,16.72
2019-04-20T09:34:24.793Z,16.73
2019-04-20T09:37:16.545Z,16.68
2019-04-20T09:39:52.411Z,16.90
2019-04-20T09:42:05.239Z,16.84
2019-04-20T09:44:41.036Z,17.18
2019-04-20T09:47:08.616Z,17.05
2019-04-20T09:49:49.362Z,17.45
2019-04-20T09:52:26.157Z,17.10
2019-04-20T09:54:59.285Z,17.41
2019-04-20T09:57:35.041Z,17.29
2019-04-20T10:00:04.370Z,17.76
2019-04-20T10:02:23.333Z,17.33
2019-04-20T10:04:47.523Z,17.77
2019-04-20T10:07:21.394Z,17.88
2019-04-20T10:09:50.197Z,17.74
2019-04-20T10:12:21.724Z,17.74
2019-04-20T10:14:53.205Z,17.34
2019-04-20T10:17:23.606Z,17.44
2019-04-20T10:19:53.737Z,17.32
2019-04-20T10:22:24.595Z,17.37
2019-04-20T10:24:55.539Z,17.59
2019-04-20T10:27:26.485Z,17.91
2019-04-20T10:29:57.533Z,17.86
2019-04-20T10:32:34.221Z,17.94
2019-04-20T10:34:59.397Z,17.50
2019-04-20T10:37:31.538Z,17.67
2019-04-20T10:40:02.899Z,18.19
2019-04-20T10:42:34.191Z,18.08
2019-04-20T10:45:06.445Z,17.83
2019-04-20T10:47:37.094Z,17.69
2019-04-20T10:50:09.112Z,17.76
2019-04-20T10:52:38.968Z,17.25
2019-04-20T10:55:10.257Z,17.63
2019-04-20T10:57:41.655Z,17.32
2019-04-20T11:00:13.576Z,17.62
2019-04-20T11:02:45.849Z,17.58
2019-04-20T11:05:15.119Z,17.41
2019-04-20T11:07:46.269Z,17.69
2019-04-20T11:10:23.688Z,17.23
2019-04-20T11:12:48.394Z,17.08
2019-04-20T11:15:18.672Z,17.34
2019-04-20T11:17:49.115Z,17.41
2019-04-20T11:20:19.251Z,17.44
2019-04-20T11:22:58.029Z,17.61
2019-04-20T11:25:26.536Z,17.57
2019-04-20T11:27:58.678Z,17.98
2019-04-20T11:30:30.049Z,17.82
2019-04-20T11:33:02.229Z,17.69
2019-04-20T11:35:39.242Z,17.76
2019-04-20T11:38:10.724Z,18.16
2019-04-20T11:40:41.184Z,18.24
2019-04-20T11:43:15.618Z,18.19
2019-04-20T11:45:46.752Z,18.04
2019-04-20T11:48:16.984Z,17.94
2019-04-20T11:50:51.639Z,18.01
2019-04-20T11:53:21.624Z,18.04
2019-04-20T11:55:52.094Z,17.81
2019-04-20T11:58:22.196Z,18.13
2019-04-20T12:01:06.266Z,18.12
2019-04-20T12:03:39.016Z,17.88
2019-04-20T12:06:04.682Z,18.14
2019-04-20T12:08:32.669Z,18.19
2019-04-20T12:11:20.257Z,18.10
2019-04-20T12:13:36.568Z,18.26
2019-04-20T12:16:07.736Z,18.12
2019-04-20T12:18:37.982Z,18.03
2019-04-20T12:21:08.552Z,18.04
2019-04-20T12:23:38.632Z,18.09
2019-04-20T12:26:08.907Z,18.04
2019-04-20T12:28:40.075Z,17.88
2019-04-20T12:31:14.748Z,17.58
2019-04-20T12:33:42.248Z,17.50
2019-04-20T12:36:12.742Z,17.69
2019-04-20T12:38:43.314Z,17.55
2019-04-20T12:41:32.019Z,17.73
2019-04-20T12:43:50.209Z,17.81
2019-04-20T12:46:31.827Z,17.68
2019-04-20T12:49:07.633Z,17.84
2019-04-20T12:51:47.539Z,17.61
2019-04-20T12:54:09.013Z,17.84
2019-04-20T12:56:38.712Z,17.72
2019-04-20T12:59:09.648Z,17.66
2019-04-20T13:01:39.648Z,17.66
2019-04-20T13:04:09.676Z,17.77
2019-04-20T13:06:40.882Z,17.48
2019-04-20T13:09:12.766Z,17.86
2019-04-20T13:12:08.062Z,17.94
2019-04-20T13:14:44.472Z,17.95
2019-04-20T13:17:14.558Z,17.98
2019-04-20T13:19:45.047Z,17.96
2019-04-20T13:22:14.923Z,18.04
2019-04-20T13:24:45.210Z,17.75
2019-04-20T13:27:16.476Z,17.63
2019-04-20T13:29:49.161Z,17.82
2019-04-20T13:32:18.140Z,17.75
2019-04-20T13:34:47.948Z,17.73
2019-04-20T13:37:18.043Z,17.58
2019-04-20T13:39:49.000Z,17.64
2019-04-20T13:42:23.294Z,17.73
2019-04-20T13:44:50.796Z,17.48
2019-04-20T13:47:20.952Z,17.51
2019-04-20T13:49:51.374Z,17.77
2019-04-20T13:52:22.690Z,17.61
2019-04-20T13:54:53.918Z,17.79
2019-04-20T13:57:31.655Z,17.45
2019-04-20T14:00:04.207Z,17.43
2019-04-20T14:02:35.769Z,17.30
2019-04-20T14:05:06.811Z,17.60
2019-04-20T14:07:37.551Z,17.64
2019-04-20T14:10:09.214Z,17.61
2019-04-20T14:12:50.597Z,17.53
2019-04-20T14:15:11.508Z,17.46
2019-04-20T14:17:41.467Z,17.45
2019-04-20T14:20:15.290Z,17.55
2019-04-20T14:22:43.277Z,17.38
2019-04-20T14:25:13.288Z,17.42
2019-04-20T14:27:43.061Z,17.29
2019-04-20T14:30:13.112Z,17.15
2019-04-20T14:32:43.044Z,17.26
2019-04-20T14:35:12.947Z,17.33
2019-04-20T14:37:43.820Z,17.22
2019-04-20T14:40:14.565Z,17.32
2019-04-20T14:42:48.572Z,17.28
2019-04-20T14:45:18.575Z,17.36
2019-04-20T14:47:49.860Z,17.34
2019-04-20T14:50:21.443Z,17.02
2019-04-20T14:52:51.536Z,17.23
2019-04-20T14:55:22.623Z,17.13
2019-04-20T14:57:53.372Z,16.94
2019-04-20T15:00:58.548Z,16.85
2019-04-20T15:03:38.445Z,16.94
2019-04-20T15:06:09.685Z,16.89
2019-04-20T15:08:40.783Z,16.68
2019-04-20T15:11:10.616Z,16.58
2019-04-20T15:13:40.728Z,16.59
2019-04-20T15:16:10.956Z,16.69
2019-04-20T15:18:53.000Z,16.87
2019-04-20T15:21:24.698Z,17.01
2019-04-20T15:23:55.408Z,16.77
2019-04-20T15:26:26.488Z,17.02
2019-04-20T15:28:56.652Z,16.70
2019-04-20T15:31:28.086Z,16.51
2019-04-20T15:33:59.110Z,16.56
2019-04-20T15:36:29.329Z,16.60
2019-04-20T15:38:59.092Z,16.58
2019-04-20T15:41:29.388Z,16.32
2019-04-20T15:43:59.549Z,16.35
2019-04-20T15:46:32.666Z,16.40
2019-04-20T15:49:02.059Z,16.09
2019-04-20T15:51:32.046Z,16.35
2019-04-20T15:54:01.984Z,16.52
2019-04-20T15:56:33.202Z,16.50
2019-04-20T15:59:04.378Z,16.35
2019-04-20T16:01:36.568Z,16.34
2019-04-20T16:04:13.903Z,16.23
2019-04-20T16:06:39.539Z,16.19
2019-04-20T16:09:10.427Z,16.22
2019-04-20T16:11:41.253Z,16.31
2019-04-20T16:14:11.253Z,16.18
2019-04-20T16:16:42.377Z,16.24
2019-04-20T16:19:26.847Z,16.19
2019-04-20T16:21:43.882Z,16.18
2019-04-20T16:24:15.050Z,16.02
2019-04-20T16:26:47.429Z,15.90
2019-04-20T16:29:17.726Z,15.92
2019-04-20T16:31:49.918Z,16.00
2019-04-20T16:34:19.301Z,15.88
2019-04-20T16:36:51.822Z,15.65
2019-04-20T16:39:20.592Z,15.69
2019-04-20T16:41:50.784Z,15.60
2019-04-20T16:44:21.111Z,15.64
2019-04-20T16:46:52.148Z,15.82
2019-04-20T16:49:23.282Z,15.88
2019-04-20T16:51:54.714Z,15.77
2019-04-20T16:54:25.909Z,15.92
2019-04-20T16:56:56.911Z,15.94
2019-04-20T16:59:28.132Z,15.78
2019-04-20T17:01:58.327Z,15.64
2019-04-20T17:04:30.050Z,15.76
2019-04-20T17:07:16.663Z,15.59
2019-04-20T17:09:49.599Z,15.51
2019-04-20T17:12:19.874Z,15.56
2019-04-20T17:14:53.694Z,15.34
2019-04-20T17:17:23.578Z,15.43
2019-04-20T17:19:53.620Z,15.38
2019-04-20T17:22:23.541Z,15.26
2019-04-20T17:24:53.800Z,15.22
2019-04-20T17:27:28.917Z,15.36
2019-04-20T17:30:10.514Z,15.41
2019-04-20T17:32:41.255Z,15.32
2019-04-20T17:35:23.242Z,15.08
2019-04-20T17:37:45.330Z,15.09
2019-04-20T17:40:35.178Z,14.96
2019-04-20T17:42:56.650Z,14.85
2019-04-20T17:45:28.244Z,14.78
2019-04-20T17:48:07.353Z,14.73
2019-04-20T17:50:41.464Z,14.58
2019-04-20T17:53:07.471Z,14.59
2019-04-20T17:55:40.679Z,14.49
2019-04-20T17:58:06.836Z,14.39
2019-04-20T18:00:56.693Z,14.22
2019-04-20T18:03:57.553Z,14.26
2019-04-20T18:06:17.335Z,14.13
2019-04-20T18:08:50.608Z,13.95
2019-04-20T18:11:07.778Z,13.92
2019-04-20T18:13:36.024Z,13.58
2019-04-20T18:16:31.263Z,13.39
2019-04-20T18:19:01.933Z,13.22
2019-04-20T18:21:56.363Z,13.17
2019-04-20T18:24:59.663Z,13.17
2019-04-20T18:27:28.997Z,12.86
2019-04-20T18:29:58.735Z,12.87
2019-04-20T18:32:37.908Z,12.92
2019-04-20T18:35:22.398Z,12.89
2019-04-20T18:38:00.808Z,12.64
2019-04-20T18:40:35.155Z,12.47
2019-04-20T18:43:05.259Z,12.36
2019-04-20T18:45:46.784Z,12.31
2019-04-20T18:48:19.655Z,12.18
2019-04-20T18:50:40.370Z,11.92
2019-04-20T18:53:14.648Z,11.79
2019-04-20T18:55:43.734Z,11.62
2019-04-20T18:58:09.499Z,11.48
2019-04-20T19:00:44.470Z,11.30
2019-04-20T19:03:18.234Z,11.19
2019-04-20T19:05:42.493Z,10.97
2019-04-20T19:08:15.347Z,10.87
2019-04-20T19:10:52.263Z,10.70
2019-04-20T19:13:28.729Z,10.52
2019-04-20T19:16:22.771Z,10.39
2019-04-20T19:19:00.807Z,10.31
2019-04-20T19:21:21.377Z,10.17
2019-04-20T19:24:01.462Z,10.00
2019-04-20T19:26:23.868Z,9.85
2019-04-20T19:28:57.865Z,9.67
2019-04-20T19:31:42.535Z,9.51
2019-04-20T19:34:15.355Z,9.28
2019-04-20T19:36:36.952Z,9.14
2019-04-20T19:39:19.941Z,8.92
2019-04-20T19:41:43.942Z,8.79
2019-04-20T19:44:17.174Z,8.74
2019-04-20T19:46:53.597Z,8.77
2019-04-20T19:49:19.281Z,8.76
2019-04-20T19:52:12.199Z,8.77
2019-04-20T19:54:30.138Z,8.69
2019-04-20T19:57:00.494Z,8.62
2019-04-20T19:59:23.360Z,8.60
2019-04-20T20:01:45.432Z,8.60
2019-04-20T20:04:15.688Z,8.54
2019-04-20T20:06:51.831Z,8.47
2019-04-20T20:09:18.204Z,8.47
2019-04-20T20:11:49.934Z,8.43
2019-04-20T20:14:30.592Z,8.32
2019-04-20T20:17:12.926Z,8.39
2019-04-20T20:19:38.086Z,8.39
2019-04-20T20:22:09.042Z,8.35
2019-04-20T20:24:27.395Z,8.33
2019-04-20T20:27:02.560Z,8.27
2019-04-20T20:29:37.559Z,8.16
2019-04-20T20:32:10.154Z,8.01
2019-04-20T20:34:38.268Z,7.99
2019-04-20T20:37:09.009Z,7.95
2019-04-20T20:39:38.656Z,7.87
2019-04-20T20:42:19.003Z,7.81
2019-04-20T20:44:45.537Z,7.79
2019-04-20T20:47:32.267Z,7.72
2019-04-20T20:50:08.775Z,7.63
2019-04-20T20:52:29.032Z,7.43
2019-04-20T20:54:53.933Z,7.38
2019-04-20T20:57:21.915Z,7.48
2019-04-20T20:59:55.277Z,7.48
2019-04-20T21:02:24.328Z,7.42
2019-04-20T21:04:51.323Z,7.25
2019-04-20T21:07:22.575Z,7.02
2019-04-20T21:09:52.515Z,6.93
2019-04-20T21:12:23.571Z,6.87
2019-04-20T21:14:55.089Z,6.92
2019-04-20T21:17:34.462Z,6.94
2019-04-20T21:20:12.637Z,6.97
2019-04-20T21:22:51.715Z,6.93
2019-04-20T21:25:14.498Z,6.85
2019-04-20T21:27:44.718Z,6.81
2019-04-20T21:30:18.485Z,6.70
2019-04-20T21:32:49.114Z,6.52
2019-04-20T21:35:17.862Z,6.39
2019-04-20T21:37:54.449Z,6.46
2019-04-20T21:40:27.886Z,6.37
2019-04-20T21:42:58.156Z,6.46
2019-04-20T21:45:28.687Z,6.34
2019-04-20T21:47:54.598Z,6.32
2019-04-20T21:50:42.714Z,6.42
2019-04-20T21:53:04.776Z,6.42
2019-04-20T21:55:28.000Z,6.41
2019-04-20T21:58:00.474Z,6.39
2019-04-20T22:00:50.461Z,6.17
2019-04-20T22:03:20.309Z,6.03
2019-04-20T22:05:54.427Z,5.94
2019-04-20T22:08:24.592Z,5.99
2019-04-20T22:10:55.827Z,6.04
2019-04-20T22:13:32.589Z,5.97
2019-04-20T22:16:03.558Z,5.91
2019-04-20T22:18:45.495Z,5.86
2019-04-20T22:21:13.268Z,5.91
2019-04-20T22:23:52.786Z,5.83
2019-04-20T22:26:17.388Z,5.66
2019-04-20T22:28:38.260Z,5.47
2019-04-20T22:31:09.715Z,5.38
2019-04-20T22:33:44.959Z,5.38
2019-04-20T22:36:16.366Z,5.43
2019-04-20T22:38:56.673Z,5.39
2019-04-20T22:41:27.707Z,5.43
2019-04-20T22:43:56.791Z,5.48
2019-04-20T22:46:31.828Z,5.52
2019-04-20T22:49:17.165Z,5.51
2019-04-20T22:51:44.034Z,5.45
2019-04-20T22:54:17.331Z,5.34
2019-04-20T22:56:48.298Z,5.17
2019-04-20T22:59:12.783Z,5.02
2019-04-20T23:01:44.410Z,5.04
2019-04-20T23:04:08.629Z,5.15
2019-04-20T23:06:43.976Z,5.14
2019-04-20T23:09:13.289Z,5.23
2019-04-20T23:11:42.394Z,5.09
2019-04-20T23:14:12.200Z,5.00
2019-04-20T23:16:47.381Z,4.93
2019-04-20T23:19:14.212Z,4.81
2019-04-20T23:21:50.245Z,4.95
2019-04-20T23:24:17.087Z,4.88
2019-04-20T23:26:48.636Z,4.70
2019-04-20T23:29:22.670Z,4.55
2019-04-20T23:31:55.748Z,4.55
2019-04-20T23:34:25.518Z,4.65
2019-04-20T23:36:54.661Z,4.68
2019-04-20T23:39:34.167Z,4.77
2019-04-20T23:42:00.372Z,4.82
2019-04-20T23:44:45.771Z,4.66
2019-04-20T23:47:22.009Z,4.48
2019-04-20T23:50:11.225Z,4.41
2019-04-20T23:53:02.470Z,4.40
2019-04-20T23:55:13.450Z,4.34
2019-04-20T23:57:45.997Z,4.29
